This is the latest recevied weather packets stored in our database for station/object RJTT. If no packets are shown the sender has not sent any weather packets the latest 10 day(s).
| Time | Temp. | Humidity | Pressure | Rain* | Wind** | Luminosity | Snow |
|---|---|---|---|---|---|---|---|
| 1777686231 | 25° C | 29% | 1004 hPa | - | - | - | - |
| 1777685631 | 23.89° C | 31% | 1004 hPa | - | - | - | - |
| 1777685030 | 23.89° C | 31% | 1004 hPa | - | - | - | - |
| 1777684426 | 23.89° C | 31% | 1004 hPa | - | - | - | - |
| 1777683828 | 21.67° C | 46% | 1004 hPa | - | - | - | - |
| 1777683229 | 21.67° C | 46% | 1004 hPa | - | - | - | - |
| 1777682627 | 21.67° C | 46% | 1004 hPa | - | - | - | - |
| 1777682028 | 21.67° C | 46% | 1004 hPa | - | - | - | - |
| 1777681431 | 21.67° C | 46% | 1004 hPa | - | - | - | - |
| 1777680828 | 21.67° C | 46% | 1004 hPa | - | - | - | - |
| 1777680232 | 20° C | 45% | 1003 hPa | - | - | - | - |
| 1777679629 | 20° C | 45% | 1003 hPa | - | - | - | - |
| 1777679030 | 20° C | 45% | 1003 hPa | - | - | - | - |
| 1777678429 | 20.56° C | 43% | 1003 hPa | - | - | - | - |
| 1777677830 | 20.56° C | 43% | 1003 hPa | - | - | - | - |
| 1777677231 | 20.56° C | 43% | 1003 hPa | - | - | - | - |
| 1777676627 | 20° C | 42% | 1002 hPa | - | - | - | - |
| 1777676031 | 20° C | 42% | 1002 hPa | - | - | - | - |
| 1777675426 | 20° C | 42% | 1002 hPa | - | - | - | - |
| 1777674830 | 17.78° C | 55% | 1002 hPa | - | - | - | - |
| 1777674231 | 17.78° C | 55% | 1002 hPa | - | - | - | - |
| 1777673629 | 17.78° C | 55% | 1002 hPa | - | - | - | - |
| 1777673035 | 17.78° C | 59% | 1001 hPa | - | - | - | - |
| 1777672433 | 17.78° C | 59% | 1001 hPa | - | - | - | - |
| 1777671834 | 17.78° C | 59% | 1001 hPa | - | - | - | - |
* Rain since midnight (hover to see other rain measurements)
** Current wind speed in m/s (hover to see current wind gust speed)